createdAt,value
2019-04-07T00:01:53.242Z,74.20
2019-04-07T00:04:21.611Z,74.30
2019-04-07T00:06:49.742Z,73.89
2019-04-07T00:09:17.949Z,74.25
2019-04-07T00:11:46.146Z,74.36
2019-04-07T00:14:14.355Z,74.57
2019-04-07T00:16:42.693Z,74.85
2019-04-07T00:19:11.135Z,75.12
2019-04-07T00:21:39.617Z,74.95
2019-04-07T00:24:07.798Z,74.94
2019-04-07T00:26:36.006Z,75.22
2019-04-07T00:29:04.767Z,75.49
2019-04-07T00:31:32.983Z,75.67
2019-04-07T00:34:01.611Z,75.56
2019-04-07T00:36:30.024Z,75.72
2019-04-07T00:38:58.222Z,75.67
2019-04-07T00:41:26.463Z,75.83
2019-04-07T00:43:54.914Z,75.95
2019-04-07T00:46:23.373Z,75.94
2019-04-07T00:48:51.532Z,76.04
2019-04-07T00:51:20.579Z,75.97
2019-04-07T00:53:48.822Z,76.01
2019-04-07T00:56:17.016Z,75.69
2019-04-07T00:58:45.678Z,75.72
2019-04-07T01:01:15.466Z,75.82
2019-04-07T01:03:43.689Z,75.87
2019-04-07T01:06:12.926Z,75.49
2019-04-07T01:08:41.555Z,75.57
2019-04-07T01:11:09.842Z,75.17
2019-04-07T01:13:38.557Z,75.17
2019-04-07T01:16:06.728Z,75.25
2019-04-07T01:18:35.571Z,75.15
2019-04-07T01:21:03.859Z,75.18
2019-04-07T01:23:32.527Z,75.23
2019-04-07T01:26:00.960Z,75.37
2019-04-07T01:28:29.512Z,75.09
2019-04-07T01:30:59.030Z,75.24
2019-04-07T01:33:27.751Z,74.88
2019-04-07T01:35:56.434Z,74.89
2019-04-07T01:38:24.676Z,75.20
2019-04-07T01:40:59.975Z,75.45
2019-04-07T01:43:38.449Z,75.85
2019-04-07T01:46:11.088Z,76.08
2019-04-07T01:48:43.641Z,75.91
2019-04-07T01:51:13.541Z,76.02
2019-04-07T01:53:48.866Z,76.07
2019-04-07T01:56:27.305Z,75.97
2019-04-07T01:59:05.623Z,76.06
2019-04-07T02:01:41.722Z,76.18
2019-04-07T02:04:28.074Z,76.47
2019-04-07T02:07:16.228Z,76.78
2019-04-07T02:09:46.851Z,76.89
2019-04-07T02:12:22.431Z,76.59
2019-04-07T02:14:58.901Z,76.49
2019-04-07T02:17:31.763Z,76.86
2019-04-07T02:20:07.826Z,76.77
2019-04-07T02:22:38.607Z,76.89
2019-04-07T02:25:24.054Z,77.02
2019-04-07T02:27:56.899Z,77.34
2019-04-07T02:30:44.836Z,77.51
2019-04-07T02:33:24.365Z,77.66
2019-04-07T02:36:21.390Z,77.73
2019-04-07T02:38:44.128Z,77.74
2019-04-07T02:41:19.941Z,78.03
2019-04-07T02:44:06.854Z,78.29
2019-04-07T02:46:38.058Z,78.48
2019-04-07T02:49:10.910Z,78.34
2019-04-07T02:51:40.724Z,78.11
2019-04-07T02:54:10.571Z,78.30
2019-04-07T02:56:49.471Z,78.35
2019-04-07T02:59:29.204Z,78.42
2019-04-07T03:02:15.363Z,78.59
2019-04-07T03:04:48.104Z,78.77
2019-04-07T03:07:17.956Z,78.67
2019-04-07T03:10:00.405Z,78.61
2019-04-07T03:12:46.695Z,78.67
2019-04-07T03:15:25.386Z,78.29
2019-04-07T03:17:57.921Z,78.47
2019-04-07T03:20:43.439Z,78.59
2019-04-07T03:23:22.268Z,78.48
2019-04-07T03:25:54.960Z,78.05
2019-04-07T03:28:30.673Z,77.89
2019-04-07T03:31:21.280Z,78.28
2019-04-07T03:33:51.910Z,78.68
2019-04-07T03:36:25.144Z,78.94
2019-04-07T03:38:56.125Z,78.96
2019-04-07T03:41:31.888Z,79.00
2019-04-07T03:44:01.818Z,78.96
2019-04-07T03:46:34.677Z,78.75
2019-04-07T03:49:04.565Z,78.91
2019-04-07T03:51:43.939Z,79.03
2019-04-07T03:54:25.633Z,79.07
2019-04-07T03:57:14.971Z,79.05
2019-04-07T03:59:57.765Z,79.23
2019-04-07T04:02:34.409Z,79.21
2019-04-07T04:05:05.317Z,79.09
2019-04-07T04:07:41.833Z,79.18
2019-04-07T04:10:14.484Z,79.26
2019-04-07T04:12:44.309Z,79.13
2019-04-07T04:15:23.161Z,79.10
2019-04-07T04:17:51.400Z,79.12
2019-04-07T04:20:19.776Z,79.22
2019-04-07T04:22:48.571Z,79.08
2019-04-07T04:25:17.189Z,78.85
2019-04-07T04:27:45.503Z,78.88
2019-04-07T04:30:13.718Z,78.88
2019-04-07T04:32:41.961Z,78.91
2019-04-07T04:35:10.772Z,78.78
2019-04-07T04:37:44.236Z,79.12
2019-04-07T04:40:09.347Z,79.34
2019-04-07T04:42:37.701Z,79.27
2019-04-07T04:45:08.066Z,79.00
2019-04-07T04:47:37.456Z,78.74
2019-04-07T04:50:08.276Z,78.27
2019-04-07T04:52:36.780Z,78.01
2019-04-07T04:55:05.428Z,77.67
2019-04-07T04:57:33.996Z,77.94
2019-04-07T05:00:02.434Z,78.41
2019-04-07T05:02:30.611Z,78.50
2019-04-07T05:04:59.372Z,78.69
2019-04-07T05:07:27.601Z,78.56
2019-04-07T05:09:56.763Z,78.36
2019-04-07T05:12:25.219Z,78.70
2019-04-07T05:14:53.996Z,78.87
2019-04-07T05:17:22.206Z,78.82
2019-04-07T05:19:50.973Z,78.69
2019-04-07T05:22:19.218Z,78.98
2019-04-07T05:24:47.594Z,78.87
2019-04-07T05:27:16.448Z,78.59
2019-04-07T05:29:44.756Z,78.78
2019-04-07T05:32:12.916Z,78.87
2019-04-07T05:34:41.267Z,79.05
2019-04-07T05:37:09.889Z,79.18
2019-04-07T05:39:38.397Z,79.00
2019-04-07T05:42:07.037Z,78.95
2019-04-07T05:44:35.600Z,78.85
2019-04-07T05:47:03.842Z,79.03
2019-04-07T05:49:32.527Z,79.00
2019-04-07T05:52:04.039Z,78.79
2019-04-07T05:54:30.664Z,78.46
2019-04-07T05:57:01.350Z,78.17
2019-04-07T05:59:28.832Z,78.15
2019-04-07T06:02:00.701Z,77.71
2019-04-07T06:04:27.114Z,76.99
2019-04-07T06:06:56.382Z,76.48
2019-04-07T06:09:25.131Z,75.93
2019-04-07T06:11:53.305Z,76.05
2019-04-07T06:14:21.498Z,76.37
2019-04-07T06:16:53.595Z,76.62
2019-04-07T06:19:20.321Z,76.79
2019-04-07T06:21:48.900Z,76.72
2019-04-07T06:24:18.398Z,76.22
2019-04-07T06:26:50.003Z,75.79
2019-04-07T06:29:18.287Z,75.78
2019-04-07T06:31:47.103Z,75.25
2019-04-07T06:34:16.185Z,74.93
2019-04-07T06:36:44.971Z,74.72
2019-04-07T06:39:13.534Z,74.64
2019-04-07T06:41:43.303Z,73.84
2019-04-07T06:44:15.809Z,73.71
2019-04-07T06:46:43.452Z,73.55
2019-04-07T06:49:15.933Z,73.19
2019-04-07T06:52:04.175Z,72.91
2019-04-07T06:54:42.114Z,72.76
2019-04-07T06:57:14.832Z,72.89
2019-04-07T07:00:02.326Z,72.50
2019-04-07T07:02:47.823Z,72.32
2019-04-07T07:05:17.886Z,71.99
2019-04-07T07:08:03.678Z,71.71
2019-04-07T07:10:37.797Z,71.66
2019-04-07T07:13:11.567Z,71.82
2019-04-07T07:15:42.894Z,71.51
2019-04-07T07:18:21.308Z,71.41
2019-04-07T07:20:51.529Z,71.10
2019-04-07T07:23:31.087Z,70.94
2019-04-07T07:26:02.929Z,70.69
2019-04-07T07:28:29.168Z,70.41
2019-04-07T07:30:57.369Z,70.19
2019-04-07T07:33:25.569Z,70.09
2019-04-07T07:35:53.787Z,69.89
2019-04-07T07:38:22.463Z,69.71
2019-04-07T07:40:51.548Z,69.50
2019-04-07T07:43:19.872Z,69.25
2019-04-07T07:45:48.576Z,69.27
2019-04-07T07:48:17.486Z,69.10
2019-04-07T07:50:45.818Z,68.86
2019-04-07T07:53:14.093Z,68.50
2019-04-07T07:55:42.255Z,68.28
2019-04-07T07:58:10.576Z,68.08
2019-04-07T08:00:41.560Z,67.77
2019-04-07T08:03:08.957Z,67.40
2019-04-07T08:05:37.617Z,67.16
2019-04-07T08:08:05.918Z,66.92
2019-04-07T08:10:34.295Z,66.72
2019-04-07T08:13:07.475Z,66.57
2019-04-07T08:15:33.657Z,66.27
2019-04-07T08:18:06.458Z,65.93
2019-04-07T08:20:32.666Z,65.60
2019-04-07T08:23:00.874Z,65.37
2019-04-07T08:25:29.203Z,65.14
2019-04-07T08:27:58.145Z,64.79
2019-04-07T08:30:27.122Z,64.46
2019-04-07T08:32:58.583Z,64.31
2019-04-07T08:35:25.289Z,63.99
2019-04-07T08:37:53.505Z,63.62
2019-04-07T08:40:21.739Z,63.04
2019-04-07T08:42:50.794Z,62.79
2019-04-07T08:45:19.640Z,62.76
2019-04-07T08:47:49.602Z,62.53
2019-04-07T08:50:20.803Z,62.34
2019-04-07T08:52:48.311Z,62.14
2019-04-07T08:55:19.941Z,61.78
2019-04-07T08:57:46.913Z,61.75
2019-04-07T09:00:17.461Z,61.59
2019-04-07T09:02:50.373Z,61.42
2019-04-07T09:05:20.632Z,61.33
2019-04-07T09:07:47.142Z,61.11
2019-04-07T09:10:19.483Z,60.85
2019-04-07T09:12:46.934Z,60.60
2019-04-07T09:15:16.792Z,60.26
2019-04-07T09:17:47.721Z,59.74
2019-04-07T09:20:26.991Z,59.46
2019-04-07T09:22:57.990Z,59.24
2019-04-07T09:25:40.032Z,58.89
2019-04-07T09:28:08.736Z,58.56
2019-04-07T09:30:48.288Z,58.19
2019-04-07T09:33:18.164Z,57.48
2019-04-07T09:35:56.725Z,57.13
2019-04-07T09:38:33.750Z,56.84
2019-04-07T09:41:09.558Z,56.51
2019-04-07T09:43:55.195Z,56.14
2019-04-07T09:46:41.643Z,55.58
2019-04-07T09:49:24.524Z,55.76
2019-04-07T09:52:00.976Z,55.58
2019-04-07T09:54:39.846Z,54.93
2019-04-07T09:57:15.690Z,54.51
2019-04-07T09:59:55.791Z,54.42
2019-04-07T10:02:31.887Z,54.34
2019-04-07T10:05:00.791Z,53.82
2019-04-07T10:07:46.876Z,54.03
2019-04-07T10:10:17.163Z,53.28
2019-04-07T10:12:54.303Z,53.12
2019-04-07T10:15:40.269Z,53.21
2019-04-07T10:18:26.082Z,52.84
2019-04-07T10:21:04.386Z,52.55
2019-04-07T10:23:48.739Z,52.59
2019-04-07T10:26:33.763Z,52.55
2019-04-07T10:29:19.796Z,52.76
2019-04-07T10:31:58.922Z,52.65
2019-04-07T10:34:31.969Z,51.79
2019-04-07T10:37:17.741Z,51.84
2019-04-07T10:40:03.128Z,51.96
2019-04-07T10:42:44.854Z,51.96
2019-04-07T10:45:17.500Z,50.84
2019-04-07T10:47:47.326Z,51.02
2019-04-07T10:50:23.175Z,51.20
2019-04-07T10:53:08.252Z,51.37
2019-04-07T10:55:44.152Z,51.46
2019-04-07T10:58:16.913Z,51.21
2019-04-07T11:00:55.240Z,51.30
2019-04-07T11:03:41.394Z,51.33
2019-04-07T11:06:29.474Z,51.05
2019-04-07T11:09:08.001Z,50.81
2019-04-07T11:11:43.833Z,50.84
2019-04-07T11:14:22.934Z,50.85
2019-04-07T11:16:52.777Z,50.98
2019-04-07T11:19:40.993Z,51.07
2019-04-07T11:22:16.606Z,50.84
2019-04-07T11:25:02.351Z,50.94
2019-04-07T11:27:38.169Z,50.98
2019-04-07T11:30:12.079Z,50.98
2019-04-07T11:32:54.329Z,51.02
2019-04-07T11:35:26.765Z,51.42
2019-04-07T11:37:55.956Z,51.55
2019-04-07T11:40:41.951Z,51.52
2019-04-07T11:43:04.361Z,51.80
2019-04-07T11:45:56.075Z,51.60
2019-04-07T11:48:24.166Z,51.58
2019-04-07T11:50:54.249Z,51.51
2019-04-07T11:53:30.781Z,52.10
2019-04-07T11:56:13.265Z,52.04
2019-04-07T11:58:45.877Z,51.74
2019-04-07T12:01:16.666Z,51.22
2019-04-07T12:03:46.524Z,51.39
2019-04-07T12:06:18.053Z,51.72
2019-04-07T12:09:04.887Z,52.09
2019-04-07T12:11:34.733Z,51.33
2019-04-07T12:14:07.424Z,51.23
2019-04-07T12:16:55.310Z,51.60
2019-04-07T12:19:32.086Z,51.69
2019-04-07T12:22:10.395Z,51.93
2019-04-07T12:24:42.207Z,52.08
2019-04-07T12:27:15.148Z,51.83
2019-04-07T12:30:01.124Z,51.54
2019-04-07T12:32:31.365Z,51.13
2019-04-07T12:35:01.188Z,51.33
2019-04-07T12:37:31.759Z,51.44
2019-04-07T12:40:20.722Z,51.69
2019-04-07T12:43:04.642Z,51.57
2019-04-07T12:45:46.770Z,51.95
2019-04-07T12:48:25.871Z,51.66
2019-04-07T12:51:13.644Z,51.38
2019-04-07T12:53:46.155Z,51.62
2019-04-07T12:56:16.891Z,51.97
2019-04-07T12:58:55.992Z,52.03
2019-04-07T13:01:25.840Z,52.04
2019-04-07T13:03:55.887Z,51.87
2019-04-07T13:06:31.993Z,51.85
2019-04-07T13:09:18.244Z,51.89
2019-04-07T13:12:04.274Z,51.82
2019-04-07T13:14:38.577Z,51.32
2019-04-07T13:17:17.901Z,51.07
2019-04-07T13:19:51.365Z,51.51
2019-04-07T13:22:33.488Z,51.43
2019-04-07T13:25:20.093Z,51.36
2019-04-07T13:27:57.811Z,50.78
2019-04-07T13:30:42.286Z,50.87
2019-04-07T13:33:29.555Z,50.57
2019-04-07T13:35:59.642Z,50.43
2019-04-07T13:38:29.436Z,50.05
2019-04-07T13:41:05.414Z,49.73
2019-04-07T13:43:53.488Z,49.94
2019-04-07T13:46:40.080Z,50.23
2019-04-07T13:49:16.103Z,49.99
2019-04-07T13:51:49.362Z,49.56
2019-04-07T13:54:31.231Z,49.92
2019-04-07T13:57:00.350Z,49.85
2019-04-07T13:59:30.202Z,49.93
2019-04-07T14:02:03.129Z,49.96
2019-04-07T14:04:42.405Z,50.16
2019-04-07T14:07:17.966Z,50.28
2019-04-07T14:09:49.563Z,50.34
2019-04-07T14:12:25.966Z,50.38
2019-04-07T14:15:02.841Z,50.31
2019-04-07T14:17:44.967Z,50.15
2019-04-07T14:20:22.634Z,50.35
2019-04-07T14:22:53.105Z,50.40
2019-04-07T14:25:23.467Z,50.24
2019-04-07T14:28:12.180Z,50.23
2019-04-07T14:30:45.659Z,50.32
2019-04-07T14:33:15.522Z,50.22
2019-04-07T14:35:45.404Z,50.02
2019-04-07T14:38:21.260Z,50.01
2019-04-07T14:41:07.485Z,50.10
2019-04-07T14:43:49.735Z,50.17
2019-04-07T14:46:21.138Z,50.04
2019-04-07T14:48:54.416Z,49.96
2019-04-07T14:51:28.372Z,49.75
2019-04-07T14:54:01.121Z,49.73
2019-04-07T14:56:40.824Z,49.93
2019-04-07T14:59:11.746Z,49.44
2019-04-07T15:01:56.040Z,49.62
2019-04-07T15:04:32.675Z,49.54
2019-04-07T15:07:18.240Z,49.56
2019-04-07T15:10:05.071Z,49.51
2019-04-07T15:12:46.874Z,49.40
2019-04-07T15:15:15.950Z,49.21
2019-04-07T15:17:45.601Z,49.21
2019-04-07T15:20:15.679Z,49.13
2019-04-07T15:22:46.848Z,49.01
2019-04-07T15:25:14.046Z,48.92
2019-04-07T15:27:42.525Z,49.00
2019-04-07T15:30:15.338Z,49.02
2019-04-07T15:32:41.626Z,49.09
2019-04-07T15:35:13.220Z,48.91
2019-04-07T15:37:41.034Z,48.99
2019-04-07T15:40:10.899Z,49.13
2019-04-07T15:42:44.114Z,49.13
2019-04-07T15:45:12.040Z,49.07
2019-04-07T15:47:40.439Z,49.14
2019-04-07T15:50:09.549Z,49.14
2019-04-07T15:52:42.175Z,49.13
2019-04-07T15:55:08.615Z,48.95
2019-04-07T15:57:37.303Z,49.42
2019-04-07T16:00:08.836Z,49.58
2019-04-07T16:02:40.933Z,49.58
2019-04-07T16:05:07.072Z,49.90
2019-04-07T16:07:35.301Z,50.26
2019-04-07T16:10:05.881Z,50.37
2019-04-07T16:12:42.872Z,50.46
2019-04-07T16:15:05.338Z,50.61
2019-04-07T16:17:34.811Z,50.65
2019-04-07T16:20:04.034Z,50.74
2019-04-07T16:22:32.251Z,50.90
2019-04-07T16:25:01.827Z,51.15
2019-04-07T16:27:30.452Z,51.45
2019-04-07T16:29:58.654Z,51.38
2019-04-07T16:32:29.186Z,51.54
2019-04-07T16:34:57.322Z,51.68
2019-04-07T16:37:29.102Z,51.74
2019-04-07T16:39:55.630Z,51.61
2019-04-07T16:42:27.587Z,51.73
2019-04-07T16:44:56.177Z,51.84
2019-04-07T16:47:26.282Z,51.83
2019-04-07T16:49:54.731Z,51.95
2019-04-07T16:52:23.158Z,51.98
2019-04-07T16:54:51.669Z,52.01
2019-04-07T16:57:20.507Z,51.74
2019-04-07T16:59:48.697Z,51.88
2019-04-07T17:02:18.274Z,51.97
2019-04-07T17:04:47.093Z,52.16
2019-04-07T17:07:17.094Z,52.12
2019-04-07T17:09:45.596Z,52.11
2019-04-07T17:12:14.945Z,52.31
2019-04-07T17:14:43.573Z,52.49
2019-04-07T17:17:15.686Z,52.60
2019-04-07T17:19:42.077Z,52.91
2019-04-07T17:22:14.001Z,53.01
2019-04-07T17:24:40.985Z,53.31
2019-04-07T17:27:11.398Z,53.65
2019-04-07T17:29:39.529Z,53.91
2019-04-07T17:32:08.916Z,54.16
2019-04-07T17:34:37.983Z,54.28
2019-04-07T17:37:07.281Z,54.42
2019-04-07T17:39:46.161Z,54.68
2019-04-07T17:42:15.643Z,54.85
2019-04-07T17:44:47.830Z,55.06
2019-04-07T17:47:29.390Z,55.17
2019-04-07T17:50:14.717Z,55.46
2019-04-07T17:52:48.237Z,55.65
2019-04-07T17:55:34.207Z,55.87
2019-04-07T17:58:20.110Z,55.94
2019-04-07T18:01:06.302Z,56.18
2019-04-07T18:03:41.829Z,56.35
2019-04-07T18:06:15.665Z,56.54
2019-04-07T18:08:51.820Z,56.85
2019-04-07T18:11:23.162Z,57.00
2019-04-07T18:13:56.682Z,57.22
2019-04-07T18:16:34.178Z,57.23
2019-04-07T18:19:07.184Z,57.27
2019-04-07T18:21:53.890Z,57.35
2019-04-07T18:24:39.236Z,57.51
2019-04-07T18:27:11.857Z,57.86
2019-04-07T18:29:43.315Z,58.07
2019-04-07T18:32:21.903Z,58.25
2019-04-07T18:34:52.792Z,58.54
2019-04-07T18:37:40.131Z,58.80
2019-04-07T18:40:27.446Z,58.94
2019-04-07T18:43:00.999Z,59.07
2019-04-07T18:45:33.345Z,59.50
2019-04-07T18:48:03.471Z,59.91
2019-04-07T18:50:36.936Z,60.33
2019-04-07T18:53:20.780Z,60.58
2019-04-07T18:55:50.944Z,60.84
2019-04-07T18:58:20.948Z,61.30
2019-04-07T19:00:57.468Z,61.61
2019-04-07T19:03:30.091Z,61.98
2019-04-07T19:06:16.561Z,62.24
2019-04-07T19:09:01.871Z,62.63
2019-04-07T19:11:48.701Z,62.88
2019-04-07T19:14:38.018Z,62.89
2019-04-07T19:17:05.384Z,62.97
2019-04-07T19:19:46.794Z,63.15
2019-04-07T19:22:34.817Z,63.37
2019-04-07T19:25:15.740Z,63.64
2019-04-07T19:28:01.022Z,63.85
2019-04-07T19:30:48.616Z,64.18
2019-04-07T19:33:17.273Z,64.39
2019-04-07T19:35:49.952Z,64.68
2019-04-07T19:38:37.333Z,64.69
2019-04-07T19:41:06.850Z,64.68
2019-04-07T19:43:37.186Z,64.71
2019-04-07T19:46:26.433Z,64.99
2019-04-07T19:48:58.998Z,65.23
2019-04-07T19:51:32.152Z,65.46
2019-04-07T19:54:20.155Z,65.38
2019-04-07T19:56:55.447Z,65.77
2019-04-07T19:59:42.662Z,66.08
2019-04-07T20:02:12.279Z,66.45
2019-04-07T20:04:53.532Z,67.05
2019-04-07T20:07:31.583Z,67.15
2019-04-07T20:10:23.721Z,67.58
2019-04-07T20:12:51.994Z,67.85
2019-04-07T20:15:29.737Z,67.79
2019-04-07T20:18:17.461Z,67.77
2019-04-07T20:20:48.323Z,67.73
2019-04-07T20:23:34.519Z,67.67
2019-04-07T20:26:22.293Z,67.47
2019-04-07T20:29:07.041Z,67.66
2019-04-07T20:31:51.967Z,67.70
2019-04-07T20:34:27.791Z,67.48
2019-04-07T20:37:07.223Z,67.65
2019-04-07T20:39:37.505Z,67.93
2019-04-07T20:42:17.364Z,67.61
2019-04-07T20:45:02.487Z,67.37
2019-04-07T20:47:38.156Z,67.54
2019-04-07T20:50:20.190Z,67.73
2019-04-07T20:52:50.402Z,68.15
2019-04-07T20:55:29.145Z,68.15
2019-04-07T20:58:22.087Z,68.60
2019-04-07T21:01:04.926Z,69.24
2019-04-07T21:03:37.573Z,69.59
2019-04-07T21:06:19.903Z,69.62
2019-04-07T21:08:49.898Z,69.66
2019-04-07T21:11:25.978Z,70.06
2019-04-07T21:14:15.485Z,70.07
2019-04-07T21:16:57.861Z,70.29
2019-04-07T21:19:38.847Z,70.34
2019-04-07T21:22:08.822Z,70.24
2019-04-07T21:24:38.985Z,70.38
2019-04-07T21:27:08.800Z,70.81
2019-04-07T21:29:45.925Z,70.74
2019-04-07T21:32:23.236Z,70.58
2019-04-07T21:35:01.380Z,70.62
2019-04-07T21:37:40.820Z,70.92
2019-04-07T21:40:20.979Z,71.19
2019-04-07T21:42:56.519Z,71.21
2019-04-07T21:45:35.403Z,71.26
2019-04-07T21:48:01.381Z,70.94
2019-04-07T21:50:31.698Z,70.99
2019-04-07T21:53:07.399Z,71.21
2019-04-07T21:55:42.075Z,71.20
2019-04-07T21:58:12.397Z,71.63
2019-04-07T22:00:51.142Z,71.98
2019-04-07T22:03:23.496Z,71.88
2019-04-07T22:05:59.391Z,72.04
2019-04-07T22:08:47.784Z,72.08
2019-04-07T22:11:16.274Z,72.09
2019-04-07T22:13:44.920Z,71.98
2019-04-07T22:16:13.129Z,71.82
2019-04-07T22:18:41.820Z,72.10
2019-04-07T22:21:10.206Z,72.18
2019-04-07T22:23:38.676Z,72.37
2019-04-07T22:26:12.721Z,72.52
2019-04-07T22:28:37.311Z,72.50
2019-04-07T22:31:05.661Z,72.58
2019-04-07T22:33:34.945Z,72.66
2019-04-07T22:36:03.879Z,72.89
2019-04-07T22:38:32.126Z,73.06
2019-04-07T22:41:01.324Z,73.44
2019-04-07T22:43:29.593Z,73.37
2019-04-07T22:46:07.741Z,73.26
2019-04-07T22:48:29.354Z,73.27
2019-04-07T22:50:58.733Z,73.14
2019-04-07T22:53:29.591Z,73.24
2019-04-07T22:55:57.125Z,73.58
2019-04-07T22:58:25.585Z,73.71
2019-04-07T23:00:54.340Z,73.75
2019-04-07T23:03:22.504Z,73.51
2019-04-07T23:05:51.351Z,73.43
2019-04-07T23:08:19.532Z,73.57
2019-04-07T23:10:48.018Z,73.53
2019-04-07T23:13:16.626Z,73.20
2019-04-07T23:15:46.445Z,73.23
2019-04-07T23:18:15.809Z,72.92
2019-04-07T23:20:44.490Z,73.41
2019-04-07T23:23:12.980Z,73.60
2019-04-07T23:25:42.041Z,73.58
2019-04-07T23:28:10.452Z,73.57
2019-04-07T23:30:39.714Z,73.54
2019-04-07T23:33:08.373Z,73.59
2019-04-07T23:35:37.083Z,73.70
2019-04-07T23:38:05.780Z,73.77
2019-04-07T23:40:34.384Z,73.73
2019-04-07T23:43:02.670Z,73.80
2019-04-07T23:45:31.589Z,73.75
2019-04-07T23:47:59.976Z,73.83
2019-04-07T23:50:29.252Z,73.75
2019-04-07T23:53:00.146Z,73.96
2019-04-07T23:55:28.405Z,74.18
2019-04-07T23:57:56.825Z,73.88
